Blandville, Kentucky
Current Conditions -  °F | °C
As of 5:53 PM on Wednesday 28 Jan 2015 (Local Time) from KPAH Reporting Station
Clear Clear  
Wind Chill: 41°   Ceiling: Unl
Heat Index: 44°   Visibility: 10mi
Dew Point: 30°   Wind: 6mph
Humidity: 58%   Direction: 140°SE
Pressure: 30.1"   Gusts: NA
Location:  36.9684°N, 88.9802°W
Report Text: KPAH 282353Z 14005KT 10SM CLR 07/M01 A3010 RMK AO2 SLP195 T00671011 10100 20056 58017
Loading
Personal Weather Stations






























Interactive Weather Map New forecast layout! Learn more

10-Day Weather Forecast

Advertisements
Track Severe Weather on mobile